Weather


ICAO METAR
KALO KALO 171254Z 06011KT 5SM -SN BR OVC016 M06/M07 A2983 RMK AO2 SLP116 P0000 T10611072
KAZO KAZO 171253Z 09008KT 10SM OVC018 M05/M09 A2995 RMK AO2 SLP156 T10501089
KCID KCID 171308Z 10014KT 1 1/4SM -SN BR OVC010 M06/M06 A2980 RMK AO2 P0000 T10561061
KCMI KCMI 171253Z 05013KT 3SM -SN BR BKN010 OVC015 M03/M04 A2981 RMK AO2 SFC VIS 4 CIG 006V013 SLP102 P0000 T10331044
KFWA KFWA 171254Z 09014KT 10SM BKN016 OVC070 M04/M07 A2991 RMK AO2 SNB25E40 SLP139 P0000 T10391067 $
KGRR KGRR 171253Z 08012KT 10SM BKN024 OVC080 M07/M11 A2998 RMK AO2 SLP164 T10671106
KMDW KMDW 171309Z 10008KT 1 3/4SM -SN BKN017 OVC034 M04/M07 A2989 RMK AO2 P0000 T10391067 $
KMKE KMKE 171305Z 10014KT 3/4SM R01L/P6000FT -SN OVC018 M03/M07 A2993 RMK AO2 SFC VIS 1 1/4 P0001 T10281067
KMKG KMKG 171255Z 08010KT 10SM OVC024 M07/M11 A2999 RMK AO2 SLP167 T10671111
KMLI KMLI 171252Z 09015G23KT 7SM SCT013 OVC034 M04/M06 A2981 RMK AO2 SLP103 T10391061
KMSN KMSN 171311Z 07008KT 3/4SM R36/4500V6000FT -SN BR VV014 M05/M07 A2991 RMK AO2 P0001 T10501067
KORD KORD 171251Z 09009KT 1 3/4SM R10L/5500VP6000FT -SN BR OVC015 M04/M07 A2988 RMK AO2 SLP129 P0000 T10441067
KOSH KOSH 171253Z 04011KT 10SM OVC020 M08/M10 A2997 RMK AO2 SLP171 T10781100
KPIA KPIA 171254Z 08011KT 3SM BR BKN011 BKN018 OVC032 M04/M06 A2980 RMK AO2 SNE36 SLP100 P0000 T10391061
KRFD KRFD 171316Z 09008G15KT 1 1/2SM -SN BR OVC038 M04/M06 A2989 RMK AO2 P0001 T10441061
KSBN KSBN 171254Z 09007KT 10SM OVC017 M04/M08 A2993 RMK AO2 SLP147 T10441078

Next Generation Radar

This is a composite plot of the radar summary, echo tops, storm movement, TVS and MESO signatures and watch boxes. The radar summary is color coded by precip type. Greens, yellows and reds are rain. Pinks are mixed precipitation (freezing rain, sleet). Blues are snow. NOTE: Radar data is susceptible to a phenomena called anomalous propagation. This generally happens at night and appears as a area of 20 dBZ echos (darkest green) which is centered around each radar site and expands with time. To try and reduce the problem, low echo values near the radar sites have been removed.


GOES 13 Visible Radar

This image is the equivalent of taking a black and white photo of the earth. The bright areas show where the sun is being reflected back into space as a result of clouds or snow cover. Clouds and snow show up white. The thicker the cloud, the brighter the color. Land surfaces show up as gray and ocean surfaces nearly black. The major limitation to visible imagery is that it is only valid during daylight.

GOES 13 Infrared 12 Hour Loop

This type of image shows heat based radiation from the infrared spectrum. In other words, the warmer the surface, the more infrared radiation it emits. For a satellite image, cooler surfaces are bright and warmer surfaces are dark. Since the atmosphere cools as you increase in altitude, clouds would show up as bright areas and land surfaces as dark areas. In addition, low clouds will be more gray and higher clouds will show up more white. Tall thunderstorm clouds will show up as bright white and fog will be hard to discern from land areas. A large advantage of IR is that you can view it 24 hours a day.


Surface Data

This is a composite map contain the following analyses: radar summary (color filled areas), surface data plot (composite station model), frontal locations (in various bold lines) and pressure contours (in thin blue lines).